»·PEaware :: COA1455 KSAN-KSEA

COA1455 :: KSAN-KSEA

FLIGHT INFORMATION

Flight Status: Arrived
Operator:
Continental Air Lines
More flights by this operator :: More flights under this callsign
Pilot: Andrew C. (28419)
Aircraft: BOEING 737-800
(B738)
More flights by this aircraft type
Origin: KSAN San Diego Intl-Lindbergh
United States
Destination: KSEA Seattle-Tacoma Intl
United States
More flights between these airports :: More routes between these airports
Route: PADRZ2 EHF SHIMR BTG HAWKZ7
File this flight plan on PilotEdge
Remarks: RMK / SIMBRIEF
Altitude:
(Current/Filed)
36,000ft
Speed:
(Current/Filed)
468kts
Departed: 21-Sep-20 06:37 PM
Arrived: 21-Sep-20 09:01 PM
Distance/Time
Traveled:
913nm/2:24
Distance/Time
To Go:
Arrived

Flight Plot

Page will automatically refresh every two minutes.

Flight plan parsing failed; only flown route is shown


Map Options




Map Legend


Flown Route
Filed Route
Departure Airport
Arrival Airport
Navaid (VOR, NDB)
Fix

Horizontal Profiles

Position Reports

Time Latitude Longitude Heading Altitude Ground
Speed
21-Sep-20 18:16 32.733356 -117.203512 269 26ft 0kts
21-Sep-20 18:17 32.733356 -117.203512 269 26ft 0kts
21-Sep-20 18:18 32.733356 -117.203512 269 26ft 0kts
21-Sep-20 18:19 32.733356 -117.203512 269 26ft 0kts
21-Sep-20 18:20 32.733356 -117.203512 269 26ft 0kts
21-Sep-20 18:21 32.733356 -117.203512 269 26ft 0kts
21-Sep-20 18:22 32.733356 -117.203512 269 26ft 0kts
21-Sep-20 18:23 32.733356 -117.203512 269 26ft 0kts
21-Sep-20 18:24 32.733356 -117.203512 269 26ft 0kts
21-Sep-20 18:25 32.733356 -117.203512 269 26ft 0kts
21-Sep-20 18:26 32.733356 -117.203512 269 26ft 0kts
21-Sep-20 18:27 32.733356 -117.203447 278 26ft 2kts
21-Sep-20 18:28 32.733344 -117.202739 278 26ft 1kts
21-Sep-20 18:29 32.733191 -117.202589 343 26ft 0kts
21-Sep-20 18:30 32.733191 -117.202589 343 26ft 0kts
21-Sep-20 18:31 32.733388 -117.202659 345 26ft 8kts
21-Sep-20 18:32 32.734796 -117.199029 105 26ft 23kts
21-Sep-20 18:33 32.732634 -117.190088 105 26ft 34kts
21-Sep-20 18:34 32.729758 -117.178189 106 24ft 22kts
21-Sep-20 18:35 32.729588 -117.176305 76 24ft 8kts
21-Sep-20 18:36 32.733668 -117.190234 286 27ft 155kts
21-Sep-20 18:37 32.751606 -117.245998 320 1804ft 231kts
21-Sep-20 18:38 32.795159 -117.310250 303 4427ft 267kts
21-Sep-20 18:39 32.841110 -117.382871 306 7367ft 284kts
21-Sep-20 18:40 32.890157 -117.459167 306 10262ft 299kts
21-Sep-20 18:41 32.948238 -117.548765 307 11406ft 371kts
21-Sep-20 18:42 33.012858 -117.647111 307 14205ft 381kts
21-Sep-20 18:43 33.081505 -117.744976 316 16908ft 392kts
21-Sep-20 18:44 33.164488 -117.831558 317 19346ft 401kts
21-Sep-20 18:45 33.250941 -117.917879 318 21540ft 411kts
21-Sep-20 18:46 33.340262 -118.004938 318 23493ft 419kts
21-Sep-20 18:47 33.426733 -118.089487 317 25286ft 425kts
21-Sep-20 18:48 33.518854 -118.179799 317 26917ft 432kts
21-Sep-20 18:49 33.622455 -118.256463 327 28395ft 445kts
21-Sep-20 18:50 33.733920 -118.321871 327 30106ft 443kts
21-Sep-20 18:51 33.846471 -118.381279 329 31738ft 441kts
21-Sep-20 18:52 33.959338 -118.436240 334 33178ft 443kts
21-Sep-20 18:53 34.080628 -118.467953 341 34513ft 449kts
21-Sep-20 18:54 34.204381 -118.489835 343 35673ft 448kts
21-Sep-20 18:55 34.329351 -118.509907 344 36017ft 460kts
21-Sep-20 18:56 34.455709 -118.529558 344 36017ft 457kts
21-Sep-20 18:57 34.581472 -118.549092 344 36018ft 459kts
21-Sep-20 18:58 34.707806 -118.568705 344 36018ft 458kts
21-Sep-20 18:59 34.833992 -118.588367 344 36092ft 458kts
21-Sep-20 19:00 34.959923 -118.610279 337 36145ft 451kts
21-Sep-20 19:01 35.069219 -118.674879 315 36146ft 428kts
21-Sep-20 19:02 35.160708 -118.766520 313 36146ft 426kts
21-Sep-20 19:03 35.251731 -118.859022 313 36114ft 425kts
21-Sep-20 19:04 35.342699 -118.951689 313 36047ft 426kts
21-Sep-20 19:05 35.433518 -119.044460 313 35962ft 426kts
21-Sep-20 19:06 35.540747 -119.111403 333 35928ft 445kts
21-Sep-20 19:07 35.659346 -119.157269 336 35926ft 448kts
21-Sep-20 19:08 35.778460 -119.200220 336 35926ft 447kts
21-Sep-20 19:09 35.897983 -119.242710 337 35926ft 447kts
21-Sep-20 19:10 36.016922 -119.284904 337 35926ft 447kts
21-Sep-20 19:11 36.135920 -119.327208 337 35944ft 446kts
21-Sep-20 19:12 36.254382 -119.369390 337 35945ft 444kts
21-Sep-20 19:13 36.373052 -119.411821 337 35945ft 445kts
21-Sep-20 19:14 36.491708 -119.454355 338 35945ft 444kts
21-Sep-20 19:15 36.609968 -119.496897 338 35945ft 444kts
21-Sep-20 19:16 36.728842 -119.539817 338 35945ft 446kts
21-Sep-20 19:17 36.847819 -119.582874 338 35945ft 446kts
21-Sep-20 19:18 36.966806 -119.626085 338 35944ft 446kts
21-Sep-20 19:19 37.085784 -119.669452 338 35945ft 446kts
21-Sep-20 19:20 37.205124 -119.713096 338 36008ft 446kts
21-Sep-20 19:21 37.324463 -119.756866 338 36098ft 447kts
21-Sep-20 19:22 37.443641 -119.800715 338 36100ft 446kts
21-Sep-20 19:23 37.562648 -119.844655 339 36100ft 446kts
21-Sep-20 19:24 37.681690 -119.888724 339 36100ft 446kts
21-Sep-20 19:25 37.800745 -119.932963 339 36107ft 445kts
21-Sep-20 19:26 37.919591 -119.977272 339 36140ft 446kts
21-Sep-20 19:27 38.038669 -120.021804 339 36137ft 446kts
21-Sep-20 19:28 38.157560 -120.066423 339 36110ft 446kts
21-Sep-20 19:29 38.276554 -120.109132 342 36093ft 447kts
21-Sep-20 19:30 38.398344 -120.145338 342 36129ft 449kts
21-Sep-20 19:31 38.520226 -120.181457 342 36119ft 450kts
21-Sep-20 19:32 38.642348 -120.217759 342 36098ft 450kts
21-Sep-20 19:33 38.764637 -120.254230 342 36082ft 451kts
21-Sep-20 19:34 38.886658 -120.290758 342 36082ft 453kts
21-Sep-20 19:35 39.009225 -120.327562 342 36169ft 453kts
21-Sep-20 19:36 39.131402 -120.364392 343 36210ft 455kts
21-Sep-20 19:37 39.254852 -120.401732 343 36210ft 455kts
21-Sep-20 19:38 39.378007 -120.439105 343 36210ft 456kts
21-Sep-20 19:39 39.501502 -120.476730 343 36210ft 456kts
21-Sep-20 19:40 39.625016 -120.514490 343 36171ft 457kts
21-Sep-20 19:41 39.748437 -120.552364 343 36137ft 456kts
21-Sep-20 19:42 39.872229 -120.590484 343 36137ft 457kts
21-Sep-20 19:43 39.995638 -120.628635 343 36137ft 457kts
21-Sep-20 19:44 40.119512 -120.667076 342 36137ft 460kts
21-Sep-20 19:45 40.244204 -120.705906 342 36122ft 460kts
21-Sep-20 19:46 40.368608 -120.744794 342 36100ft 461kts
21-Sep-20 19:47 40.493306 -120.783918 342 36100ft 462kts
21-Sep-20 19:48 40.618305 -120.823294 342 36100ft 462kts
21-Sep-20 19:49 40.743304 -120.862819 342 36100ft 464kts
21-Sep-20 19:51 40.868630 -120.902588 342 36100ft 464kts
21-Sep-20 19:52 40.994196 -120.942605 342 36100ft 465kts
21-Sep-20 19:53 41.120174 -120.982892 342 36094ft 466kts
21-Sep-20 19:54 41.246170 -121.023338 342 36081ft 467kts
21-Sep-20 19:55 41.372369 -121.064023 342 36075ft 468kts
21-Sep-20 19:56 41.499070 -121.105031 342 36080ft 468kts
21-Sep-20 19:57 41.625608 -121.146153 341 36077ft 469kts
21-Sep-20 19:58 41.752124 -121.187423 341 36074ft 469kts
21-Sep-20 19:59 41.878989 -121.228985 341 36073ft 470kts
21-Sep-20 20:00 42.005833 -121.270703 341 36069ft 471kts
21-Sep-20 20:01 42.133339 -121.312820 341 36063ft 474kts
21-Sep-20 20:02 42.260731 -121.355045 341 36064ft 473kts
21-Sep-20 20:03 42.388450 -121.397583 341 36064ft 474kts
21-Sep-20 20:04 42.516550 -121.440401 341 36063ft 474kts
21-Sep-20 20:05 42.644145 -121.483249 341 36071ft 474kts
21-Sep-20 20:05 42.750815 -121.519197 341 36081ft 475kts
21-Sep-20 20:07 42.900416 -121.569833 341 36082ft 476kts
21-Sep-20 20:08 43.028690 -121.613436 341 36082ft 476kts
21-Sep-20 20:08 43.135804 -121.650006 340 36099ft 476kts
21-Sep-20 20:10 43.285311 -121.701204 340 36127ft 478kts
21-Sep-20 20:11 43.414770 -121.745790 340 36128ft 479kts
21-Sep-20 20:11 43.522471 -121.783039 340 36127ft 479kts
21-Sep-20 20:12 43.651638 -121.827902 340 36128ft 479kts
21-Sep-20 20:13 43.780963 -121.873037 340 36118ft 480kts
21-Sep-20 20:14 43.910912 -121.918571 340 36109ft 480kts
21-Sep-20 20:15 44.040199 -121.964086 340 36104ft 480kts
21-Sep-20 20:16 44.166772 -122.008848 340 36097ft 480kts
21-Sep-20 20:17 44.296396 -122.054897 340 36090ft 480kts
21-Sep-20 20:18 44.426623 -122.101373 340 36061ft 480kts
21-Sep-20 20:19 44.555035 -122.147413 340 36046ft 481kts
21-Sep-20 20:20 44.685181 -122.194284 340 36045ft 480kts
21-Sep-20 20:21 44.814947 -122.241239 340 36045ft 482kts
21-Sep-20 20:22 44.945208 -122.288581 340 36045ft 481kts
21-Sep-20 20:23 45.075079 -122.336007 340 36040ft 481kts
21-Sep-20 20:24 45.202435 -122.382743 339 36036ft 482kts
21-Sep-20 20:25 45.332321 -122.430613 339 36036ft 482kts
21-Sep-20 20:26 45.462615 -122.478865 339 36036ft 482kts
21-Sep-20 20:27 45.592260 -122.527109 339 36036ft 480kts
21-Sep-20 20:28 45.721880 -122.575580 339 36036ft 481kts
21-Sep-20 20:29 45.851360 -122.614982 343 33385ft 485kts
21-Sep-20 20:30 45.984208 -122.649497 344 30512ft 475kts
21-Sep-20 20:31 46.108595 -122.680512 345 28492ft 454kts
21-Sep-20 20:32 46.230432 -122.704532 346 26431ft 435kts
21-Sep-20 20:33 46.346788 -122.722211 353 24410ft 442kts
21-Sep-20 20:34 46.466464 -122.727211 354 22294ft 421kts
21-Sep-20 20:35 46.581064 -122.731528 354 20182ft 404kts
21-Sep-20 20:36 46.691226 -122.735577 355 18161ft 386kts
21-Sep-20 20:37 46.791719 -122.715649 21 17272ft 354kts
21-Sep-20 20:38 46.875550 -122.632418 36 15442ft 362kts
21-Sep-20 20:39 46.955272 -122.555562 17 14357ft 319kts
21-Sep-20 20:40 47.039960 -122.517458 13 12864ft 317kts
21-Sep-20 20:41 47.122203 -122.492342 4 11465ft 310kts
21-Sep-20 20:42 47.201393 -122.478225 3 10125ft 304kts
21-Sep-20 20:43 47.284106 -122.465797 4 8981ft 290kts
21-Sep-20 20:44 47.361797 -122.454994 359 7946ft 260kts
21-Sep-20 20:45 47.434561 -122.455364 358 6755ft 261kts
21-Sep-20 20:46 47.505812 -122.455156 358 6032ft 243kts
21-Sep-20 20:47 47.572530 -122.454067 358 5991ft 239kts
21-Sep-20 20:48 47.638570 -122.453073 358 5550ft 227kts
21-Sep-20 20:49 47.701685 -122.452968 358 3383ft 222kts
21-Sep-20 20:50 47.763010 -122.453657 358 2991ft 220kts
21-Sep-20 20:51 47.823454 -122.446975 35 2992ft 219kts
21-Sep-20 20:52 47.829642 -122.363133 124 2976ft 195kts
21-Sep-20 20:53 47.783608 -122.325059 155 2991ft 190kts
21-Sep-20 20:54 47.733078 -122.305024 179 2992ft 190kts
21-Sep-20 20:55 47.679896 -122.305406 180 2991ft 190kts
21-Sep-20 20:56 47.626656 -122.305960 180 2990ft 190kts
21-Sep-20 20:57 47.573216 -122.306522 180 2604ft 188kts
21-Sep-20 20:58 47.522574 -122.306995 180 1610ft 151kts
21-Sep-20 20:59 47.481906 -122.307563 181 833ft 140kts
21-Sep-20 21:00 47.449189 -122.307903 179 443ft 40kts
21-Sep-20 21:01 47.445850 -122.306568 113 443ft 0kts
21-Sep-20 21:02 47.444533 -122.306294 181 443ft 22kts
21-Sep-20 21:03 47.439958 -122.303568 78 443ft 18kts
21-Sep-20 21:04 47.440563 -122.299994 67 443ft 0kts

Navigation Log

Ident Type
Flight plan parsing failed, navigation log unavailable